ARG1789 SARI-SABE
Flight info
| Callsign | ARG1789 |
|---|---|
| Flight time | N/A |
| Altitude | 36000 |
| Route | NAIDE1C NAIDE UT667 GEMSU UN785 GUA UZ129 PAGON PAGON7U |
| Aircraft | E190/M-SDE3GILORVW/S |
Departure
| Time | N/A |
|---|---|
| Airport | Cataratas Del Iguazú International Airport (SARI) |
Arrival
| Time | 2026-04-30 15:11 |
|---|---|
| Airport | Aeroparque Jorge Newbery (SABE) |
| Time | Latitude | Longitude | Altitude | Speed | Heading |
|---|---|---|---|---|---|
| 2026-04-30 13:56 | -27.49543 | -55.32457 | 36086 ft | 408 kts | 247° |
| 2026-04-30 13:56 | -27.50824 | -55.35306 | 36083 ft | 408 kts | 247° |
| 2026-04-30 13:57 | -27.53393 | -55.41037 | 36084 ft | 416 kts | 247° |
| 2026-04-30 13:57 | -27.55999 | -55.46858 | 36083 ft | 414 kts | 247° |
| 2026-04-30 13:58 | -27.59901 | -55.55517 | 36083 ft | 415 kts | 245° |
| 2026-04-30 13:59 | -27.63659 | -55.60561 | 36087 ft | 430 kts | 226° |
| 2026-04-30 13:59 | -27.68155 | -55.64236 | 36089 ft | 438 kts | 219° |
| 2026-04-30 14:00 | -27.72882 | -55.67079 | 36088 ft | 438 kts | 219° |
| 2026-04-30 14:00 | -27.79506 | -55.72255 | 36088 ft | 434 kts | 223° |
| 2026-04-30 14:01 | -27.84483 | -55.76241 | 36087 ft | 434 kts | 222° |
| 2026-04-30 14:01 | -27.89364 | -55.80074 | 36088 ft | 435 kts | 221° |
| 2026-04-30 14:02 | -27.94387 | -55.83953 | 36089 ft | 435 kts | 221° |
| 2026-04-30 14:02 | -27.99404 | -55.87787 | 36088 ft | 435 kts | 221° |
| 2026-04-30 14:03 | -28.04431 | -55.91602 | 36088 ft | 435 kts | 221° |
| 2026-04-30 14:03 | -28.09482 | -55.95417 | 36088 ft | 435 kts | 221° |
| 2026-04-30 14:04 | -28.14485 | -55.99192 | 36088 ft | 435 kts | 221° |
| 2026-04-30 14:04 | -28.19507 | -56.02981 | 36089 ft | 435 kts | 221° |
| 2026-04-30 14:05 | -28.24577 | -56.06808 | 36089 ft | 435 kts | 221° |
| 2026-04-30 14:05 | -28.29594 | -56.10598 | 36089 ft | 435 kts | 221° |
| 2026-04-30 14:06 | -28.37167 | -56.16326 | 36091 ft | 435 kts | 221° |
| 2026-04-30 14:07 | -28.44704 | -56.22037 | 36091 ft | 435 kts | 221° |
| 2026-04-30 14:08 | -28.52293 | -56.27797 | 36094 ft | 435 kts | 221° |
| 2026-04-30 14:08 | -28.59809 | -56.33512 | 36095 ft | 435 kts | 221° |
| 2026-04-30 14:09 | -28.64804 | -56.37315 | 36097 ft | 435 kts | 221° |
| 2026-04-30 14:10 | -28.71994 | -56.42797 | 36112 ft | 435 kts | 221° |
| 2026-04-30 14:10 | -28.77032 | -56.46644 | 36113 ft | 435 kts | 221° |
| 2026-04-30 14:11 | -28.82065 | -56.50492 | 36113 ft | 435 kts | 221° |
| 2026-04-30 14:11 | -28.87059 | -56.54315 | 36113 ft | 435 kts | 221° |
| 2026-04-30 14:12 | -28.92079 | -56.58181 | 36113 ft | 435 kts | 221° |
| 2026-04-30 14:12 | -28.97098 | -56.62060 | 36113 ft | 435 kts | 221° |
| 2026-04-30 14:13 | -29.02099 | -56.65931 | 36113 ft | 435 kts | 221° |
| 2026-04-30 14:13 | -29.07121 | -56.69822 | 36113 ft | 435 kts | 221° |
| 2026-04-30 14:14 | -29.12098 | -56.73681 | 36113 ft | 435 kts | 221° |
| 2026-04-30 14:14 | -29.17138 | -56.77595 | 36113 ft | 435 kts | 221° |
| 2026-04-30 14:15 | -29.22109 | -56.81459 | 36113 ft | 435 kts | 221° |
| 2026-04-30 14:15 | -29.27111 | -56.85353 | 36113 ft | 435 kts | 221° |
| 2026-04-30 14:16 | -29.32120 | -56.89257 | 36100 ft | 437 kts | 220° |
| 2026-04-30 14:16 | -29.37200 | -56.93227 | 36097 ft | 446 kts | 220° |
| 2026-04-30 14:17 | -29.42343 | -56.97245 | 36096 ft | 446 kts | 220° |
| 2026-04-30 14:17 | -29.47429 | -57.01217 | 36093 ft | 442 kts | 220° |
| 2026-04-30 14:18 | -29.52540 | -57.05217 | 36093 ft | 444 kts | 220° |
| 2026-04-30 14:18 | -29.60206 | -57.11229 | 36095 ft | 444 kts | 220° |
| 2026-04-30 14:19 | -29.67860 | -57.17241 | 36095 ft | 444 kts | 220° |
| 2026-04-30 14:20 | -29.72965 | -57.21259 | 36095 ft | 444 kts | 220° |
| 2026-04-30 14:20 | -29.80613 | -57.27287 | 36094 ft | 444 kts | 220° |
| 2026-04-30 14:21 | -29.85715 | -57.31314 | 36093 ft | 444 kts | 220° |
| 2026-04-30 14:22 | -29.93349 | -57.37351 | 36095 ft | 444 kts | 220° |
| 2026-04-30 14:22 | -30.00964 | -57.43383 | 36089 ft | 444 kts | 220° |
| 2026-04-30 14:23 | -30.11149 | -57.51469 | 36084 ft | 445 kts | 220° |
| 2026-04-30 14:24 | -30.18790 | -57.57549 | 36083 ft | 445 kts | 220° |
| 2026-04-30 14:25 | -30.27303 | -57.63958 | 36083 ft | 452 kts | 210° |
| 2026-04-30 14:27 | -30.30914 | -57.65416 | 36089 ft | 458 kts | 203° |
| 2026-04-30 14:28 | -30.40107 | -57.68596 | 36084 ft | 460 kts | 202° |
| 2026-04-30 14:28 | -30.46241 | -57.70703 | 36083 ft | 459 kts | 202° |
| 2026-04-30 14:29 | -30.58453 | -57.74934 | 36083 ft | 460 kts | 203° |
| 2026-04-30 14:31 | -30.73749 | -57.80268 | 36083 ft | 459 kts | 203° |
| 2026-04-30 14:31 | -30.82935 | -57.83465 | 36083 ft | 459 kts | 203° |
| 2026-04-30 14:32 | -30.92111 | -57.86667 | 36083 ft | 459 kts | 203° |
| 2026-04-30 14:33 | -30.98187 | -57.88791 | 36083 ft | 458 kts | 203° |
| 2026-04-30 14:33 | -31.07351 | -57.92001 | 36083 ft | 458 kts | 203° |
| 2026-04-30 14:34 | -31.13460 | -57.94146 | 36083 ft | 458 kts | 203° |
| 2026-04-30 14:34 | -31.19562 | -57.96290 | 36083 ft | 458 kts | 203° |
| 2026-04-30 14:35 | -31.28733 | -57.99519 | 36083 ft | 459 kts | 203° |
| 2026-04-30 14:36 | -31.34843 | -58.01674 | 36083 ft | 459 kts | 203° |
| 2026-04-30 14:36 | -31.40963 | -58.03835 | 36083 ft | 459 kts | 203° |
| 2026-04-30 14:37 | -31.47087 | -58.06001 | 36083 ft | 459 kts | 203° |
| 2026-04-30 14:37 | -31.53201 | -58.08166 | 36083 ft | 459 kts | 203° |
| 2026-04-30 14:38 | -31.59326 | -58.10338 | 36083 ft | 459 kts | 203° |
| 2026-04-30 14:38 | -31.65447 | -58.12511 | 36083 ft | 459 kts | 203° |
| 2026-04-30 14:39 | -31.71558 | -58.14684 | 36083 ft | 459 kts | 203° |
| 2026-04-30 14:39 | -31.77680 | -58.16863 | 36083 ft | 459 kts | 203° |
| 2026-04-30 14:40 | -31.86801 | -58.20116 | 36083 ft | 458 kts | 203° |
| 2026-04-30 14:40 | -31.92895 | -58.22294 | 36083 ft | 458 kts | 203° |
| 2026-04-30 14:41 | -31.99007 | -58.24481 | 36083 ft | 458 kts | 204° |
| 2026-04-30 14:41 | -32.05099 | -58.26663 | 36083 ft | 457 kts | 204° |
| 2026-04-30 14:42 | -32.11186 | -58.28847 | 36083 ft | 457 kts | 204° |
| 2026-04-30 14:42 | -32.17274 | -58.31035 | 36083 ft | 457 kts | 204° |
| 2026-04-30 14:43 | -32.23366 | -58.33226 | 36083 ft | 457 kts | 204° |
| 2026-04-30 14:43 | -32.29453 | -58.35420 | 36083 ft | 457 kts | 204° |
| 2026-04-30 14:44 | -32.35326 | -58.37538 | 36083 ft | 457 kts | 204° |
| 2026-04-30 14:44 | -32.36304 | -58.37892 | 36083 ft | 457 kts | 204° |
| 2026-04-30 14:45 | -32.37198 | -58.38214 | 36083 ft | 457 kts | 204° |
| 2026-04-30 14:45 | -32.41760 | -58.39862 | 36083 ft | 457 kts | 204° |
| 2026-04-30 14:46 | -32.47850 | -58.42064 | 36083 ft | 457 kts | 204° |
| 2026-04-30 14:46 | -32.50880 | -58.43160 | 35796 ft | 453 kts | 204° |
| 2026-04-30 14:46 | -32.53879 | -58.44241 | 35219 ft | 446 kts | 204° |
| 2026-04-30 14:47 | -32.56815 | -58.45299 | 34657 ft | 438 kts | 205° |
| 2026-04-30 14:47 | -32.59716 | -58.46344 | 34109 ft | 432 kts | 205° |
| 2026-04-30 14:47 | -32.62585 | -58.47384 | 33580 ft | 433 kts | 205° |
| 2026-04-30 14:47 | -32.65508 | -58.48453 | 33054 ft | 445 kts | 205° |
| 2026-04-30 14:48 | -32.68512 | -58.49559 | 32516 ft | 457 kts | 205° |
| 2026-04-30 14:48 | -32.71561 | -58.50678 | 31969 ft | 459 kts | 206° |
| 2026-04-30 14:48 | -32.74609 | -58.51790 | 31418 ft | 458 kts | 206° |
| 2026-04-30 14:48 | -32.77650 | -58.52895 | 30867 ft | 456 kts | 206° |
| 2026-04-30 14:49 | -32.80652 | -58.53986 | 30323 ft | 456 kts | 206° |
| 2026-04-30 14:49 | -32.83688 | -58.55092 | 29774 ft | 457 kts | 206° |
| 2026-04-30 14:49 | -32.86722 | -58.56199 | 29225 ft | 457 kts | 205° |
| 2026-04-30 14:49 | -32.89796 | -58.57320 | 28669 ft | 453 kts | 205° |
| 2026-04-30 14:50 | -32.95671 | -58.59449 | 27599 ft | 429 kts | 205° |
| 2026-04-30 14:50 | -32.98457 | -58.60457 | 27103 ft | 418 kts | 206° |
| 2026-04-30 14:51 | -33.04130 | -58.61748 | 26155 ft | 418 kts | 194° |
| 2026-04-30 14:51 | -33.07036 | -58.62070 | 25660 ft | 422 kts | 194° |
| 2026-04-30 14:51 | -33.12899 | -58.62756 | 24617 ft | 419 kts | 194° |
| 2026-04-30 14:52 | -33.15776 | -58.63090 | 24106 ft | 412 kts | 194° |
| 2026-04-30 14:52 | -33.21380 | -58.63738 | 23113 ft | 399 kts | 194° |
| 2026-04-30 14:52 | -33.24128 | -58.64059 | 22635 ft | 396 kts | 194° |
| 2026-04-30 14:53 | -33.29611 | -58.64705 | 21685 ft | 395 kts | 193° |
| 2026-04-30 14:53 | -33.32337 | -58.65025 | 21210 ft | 392 kts | 193° |
| 2026-04-30 14:54 | -33.37708 | -58.65651 | 20273 ft | 383 kts | 193° |
| 2026-04-30 14:54 | -33.42980 | -58.66266 | 19368 ft | 378 kts | 193° |
| 2026-04-30 14:55 | -33.48187 | -58.66877 | 18468 ft | 374 kts | 193° |
| 2026-04-30 14:55 | -33.50765 | -58.67178 | 18018 ft | 371 kts | 193° |
| 2026-04-30 14:55 | -33.55850 | -58.67772 | 17140 ft | 363 kts | 193° |
| 2026-04-30 14:56 | -33.60835 | -58.68355 | 16290 ft | 358 kts | 193° |
| 2026-04-30 14:56 | -33.65734 | -58.68930 | 15444 ft | 353 kts | 193° |
| 2026-04-30 14:57 | -33.68175 | -58.69216 | 15018 ft | 350 kts | 193° |
| 2026-04-30 14:57 | -33.72981 | -58.69780 | 14181 ft | 344 kts | 193° |
| 2026-04-30 14:58 | -33.77728 | -58.70340 | 13360 ft | 342 kts | 192° |
| 2026-04-30 14:58 | -33.80086 | -58.70619 | 12950 ft | 341 kts | 192° |
| 2026-04-30 14:58 | -33.84791 | -58.71177 | 12136 ft | 337 kts | 191° |
| 2026-04-30 14:59 | -33.89423 | -58.71724 | 11575 ft | 333 kts | 191° |
| 2026-04-30 15:00 | -33.96216 | -58.72474 | 10906 ft | 309 kts | 190° |
| 2026-04-30 15:00 | -34.00307 | -58.72876 | 10647 ft | 280 kts | 191° |
| 2026-04-30 15:01 | -34.04093 | -58.73253 | 10016 ft | 269 kts | 191° |
| 2026-04-30 15:01 | -34.05323 | -58.73379 | 9800 ft | 266 kts | 191° |
| 2026-04-30 15:01 | -34.09549 | -58.73814 | 9041 ft | 258 kts | 191° |
| 2026-04-30 15:02 | -34.11349 | -58.74001 | 8735 ft | 255 kts | 191° |
| 2026-04-30 15:02 | -34.13116 | -58.74185 | 8434 ft | 254 kts | 191° |
| 2026-04-30 15:03 | -34.18423 | -58.74745 | 7505 ft | 258 kts | 190° |
| 2026-04-30 15:03 | -34.21982 | -58.75118 | 6891 ft | 255 kts | 189° |
| 2026-04-30 15:04 | -34.25487 | -58.75483 | 6286 ft | 251 kts | 189° |
| 2026-04-30 15:04 | -34.30696 | -58.76021 | 5385 ft | 250 kts | 187° |
| 2026-04-30 15:05 | -34.34990 | -58.72973 | 4807 ft | 268 kts | 134° |
| 2026-04-30 15:06 | -34.37551 | -58.69815 | 4304 ft | 259 kts | 140° |
| 2026-04-30 15:06 | -34.40099 | -58.66801 | 3802 ft | 254 kts | 137° |
| 2026-04-30 15:07 | -34.42538 | -58.63752 | 3305 ft | 251 kts | 135° |
| 2026-04-30 15:07 | -34.44852 | -58.60808 | 3128 ft | 235 kts | 135° |
| 2026-04-30 15:08 | -34.46991 | -58.58050 | 3045 ft | 217 kts | 131° |
| 2026-04-30 15:08 | -34.49428 | -58.53375 | 2208 ft | 221 kts | 119° |
| 2026-04-30 15:09 | -34.50991 | -58.50384 | 1526 ft | 198 kts | 121° |
| 2026-04-30 15:09 | -34.52419 | -58.47845 | 1164 ft | 171 kts | 121° |
| 2026-04-30 15:10 | -34.53713 | -58.45528 | 630 ft | 161 kts | 123° |
| 2026-04-30 15:11 | -34.55973 | -58.41483 | 28 ft | 121 kts | 124° |
| 2026-04-30 15:11 | -34.56528 | -58.40488 | 28 ft | 13 kts | 124° |
| 2026-04-30 15:12 | -34.56443 | -58.40431 | 28 ft | 10 kts | 317° |
| 2026-04-30 15:13 | -34.56307 | -58.40579 | 28 ft | 16 kts | 311° |
| 2026-04-30 15:14 | -34.56125 | -58.40971 | 28 ft | 12 kts | 304° |
| 2026-04-30 15:14 | -34.55961 | -58.41232 | 28 ft | 10 kts | 307° |
| 2026-04-30 15:16 | -34.55818 | -58.41316 | 28 ft | 3 kts | 303° |
| 2026-04-30 15:17 | -34.55757 | -58.41325 | 28 ft | 0 kts | 33° |